Time;durP1;ratioP1;P1;durP2;ratioP2;P2;SDS_P1;SDS_P2;PMS_P1;PMS_P2;Temp;Humidity;BMP_temperature;BMP_pressure;BME280_temperature;BME280_humidity;BME280_pressure;Samples;Min_cycle;Max_cycle;Signal;HPM_P1;HPM_P2
2023/12/20 00:00:28;;;;;;;;;;;;;;;6.02;100.00;100131.02;106738;1286;72389;-55
2023/12/20 00:03:14;;;;;;;;;;;;;;;6.02;100.00;100121.27;106793;1286;58814;-55
2023/12/20 00:06:00;;;;;;;;;;;;;;;6.03;100.00;100116.30;106750;1286;59928;-54
2023/12/20 00:08:45;;;;;;;;;;;;;;;6.03;100.00;100109.28;106688;1286;73310;-55
2023/12/20 00:11:31;;;;;;;;;;;;;;;6.03;100.00;100107.40;106747;1286;67336;-55
2023/12/20 00:14:17;;;;;;;;;;;;;;;6.02;100.00;100104.33;106718;1288;72271;-56
2023/12/20 00:17:03;;;;;;;;;;;;;;;6.02;100.00;100104.67;106835;1285;59707;-55
2023/12/20 00:19:49;;;;;;;;;;;;;;;6.03;100.00;100100.73;106764;1285;58992;-55
2023/12/20 00:22:34;;;;;;;;;;;;;;;6.02;100.00;100102.95;105943;1285;73291;-53
2023/12/20 00:25:21;;;;;;;;;;;;;;;6.02;100.00;100107.06;105333;1288;70018;-54
2023/12/20 00:28:07;;;;;;;;;;;;;;;6.02;100.00;100104.33;105365;1289;75156;-55
2023/12/20 00:30:53;;;;;;;;;;;;;;;6.01;100.00;100098.00;105395;1286;61206;-54
2023/12/20 00:33:43;;;;;;;;;;;;;;;6.01;100.00;100100.40;105409;1289;61298;-55
2023/12/20 00:36:29;;;;;;;;;;;;;;;6.00;100.00;100098.69;105366;1286;73892;-54
2023/12/20 00:39:15;;;;;;;;;;;;;;;5.98;100.00;100092.54;105383;1286;68786;-54
2023/12/20 00:42:01;;;;;;;;;;;;;;;5.97;100.00;100089.80;105370;1289;71176;-54
2023/12/20 00:44:48;;;;;;;;;;;;;;;5.96;100.00;100088.10;105242;1287;61259;-53
2023/12/20 00:47:34;;;;;;;;;;;;;;;5.96;100.00;100090.67;105369;1285;61077;-53
2023/12/20 00:50:21;;;;;;;;;;;;;;;5.95;100.00;100087.25;106631;1285;74602;-55
2023/12/20 00:53:07;;;;;;;;;;;;;;;5.95;100.00;100089.48;106783;1286;68385;-55
2023/12/20 00:55:53;;;;;;;;;;;;;;;5.95;100.00;100087.09;106725;1285;71451;-53
2023/12/20 00:58:38;;;;;;;;;;;;;;;5.94;100.00;100083.15;106735;1285;59149;-55
2023/12/20 01:01:24;;;;;;;;;;;;;;;5.94;100.00;100082.64;106773;1289;60503;-55
2023/12/20 01:04:10;;;;;;;;;;;;;;;5.95;100.00;100081.96;106802;1286;75046;-56
2023/12/20 01:06:56;;;;;;;;;;;;;;;5.95;100.00;100082.46;106746;1286;68522;-55
2023/12/20 01:09:42;;;;;;;;;;;;;;;5.95;100.00;100085.03;106776;1285;73113;-55
2023/12/20 01:12:28;;;;;;;;;;;;;;;5.95;100.00;100083.66;106728;1285;59078;-55
2023/12/20 01:15:14;;;;;;;;;;;;;;;5.95;100.00;100078.70;106779;1288;59248;-55
2023/12/20 01:17:59;;;;;;;;;;;;;;;5.94;100.00;100080.08;106781;1289;75470;-55
2023/12/20 01:20:45;;;;;;;;;;;;;;;5.96;100.00;100078.52;106781;1285;68406;-55
2023/12/20 01:23:32;;;;;;;;;;;;;;;5.95;100.00;100071.86;106759;1285;72560;-55
2023/12/20 01:26:18;;;;;;;;;;;;;;;5.94;100.00;100065.20;106758;1285;59189;-55
2023/12/20 01:29:03;;;;;;;;;;;;;;;5.93;100.00;100069.48;106800;1286;59612;-56
2023/12/20 01:31:50;;;;;;;;;;;;;;;5.93;100.00;100063.83;106722;1285;74378;-55
2023/12/20 01:34:35;;;;;;;;;;;;;;;5.92;100.00;100066.40;106511;1284;160392;-55
2023/12/20 01:37:23;;;;;;;;;;;;;;;5.93;100.00;100059.39;106721;1286;72592;-56
2023/12/20 01:40:09;;;;;;;;;;;;;;;5.92;100.00;100061.10;106760;1285;58913;-54
2023/12/20 01:43:02;;;;;;;;;;;;;;;5.92;100.00;100053.23;106772;1285;59224;-54
2023/12/20 01:45:48;;;;;;;;;;;;;;;5.92;100.00;100053.40;106716;1286;74407;-55
2023/12/20 01:48:34;;;;;;;;;;;;;;;5.92;100.00;100049.30;106797;1285;67933;-55
2023/12/20 01:51:20;;;;;;;;;;;;;;;5.92;100.00;100045.20;106796;1285;72870;-56
2023/12/20 01:54:06;;;;;;;;;;;;;;;5.91;100.00;100040.41;106786;1286;59141;-55
2023/12/20 01:56:52;;;;;;;;;;;;;;;5.90;100.00;100034.25;106764;1285;58939;-55
2023/12/20 01:59:39;;;;;;;;;;;;;;;5.90;100.00;100032.03;106720;1285;74736;-55
2023/12/20 02:02:27;;;;;;;;;;;;;;;5.90;100.00;100030.66;106797;1285;67199;-55
2023/12/20 02:05:13;;;;;;;;;;;;;;;5.90;100.00;100030.49;106783;1285;71506;-55
2023/12/20 02:07:58;;;;;;;;;;;;;;;5.90;100.00;100029.81;106762;1286;59040;-56
2023/12/20 02:10:44;;;;;;;;;;;;;;;5.88;100.00;100028.09;106784;1286;59245;-54
2023/12/20 02:13:30;;;;;;;;;;;;;;;5.87;100.00;100021.77;106752;1285;73530;-54
2023/12/20 02:16:16;;;;;;;;;;;;;;;5.87;100.00;100023.29;106251;1283;286157;-55
2023/12/20 02:19:04;;;;;;;;;;;;;;;5.88;100.00;100021.75;106616;1289;72633;-55
2023/12/20 02:21:50;;;;;;;;;;;;;;;5.88;100.00;100023.98;106833;1283;59154;-55
2023/12/20 02:24:36;;;;;;;;;;;;;;;5.87;100.00;100027.58;106793;1286;59028;-55
2023/12/20 02:27:22;;;;;;;;;;;;;;;5.87;100.00;100026.20;106899;1283;74457;-53
2023/12/20 02:30:10;;;;;;;;;;;;;;;5.86;100.00;100020.05;106854;1283;67023;-54
2023/12/20 02:32:56;;;;;;;;;;;;;;;5.86;100.00;100021.25;106764;1283;72522;-53
2023/12/20 02:35:41;;;;;;;;;;;;;;;5.85;100.00;100010.64;106823;1283;59559;-52
2023/12/20 02:38:27;;;;;;;;;;;;;;;5.86;100.00;100006.88;106887;1283;58933;-54
2023/12/20 02:41:15;;;;;;;;;;;;;;;5.86;100.00;100003.13;106869;1283;74564;-54
2023/12/20 02:44:01;;;;;;;;;;;;;;;5.85;100.00;100007.39;106882;1283;67313;-54
2023/12/20 02:46:47;;;;;;;;;;;;;;;5.85;100.00;100003.81;106864;1283;71128;-54
2023/12/20 02:49:33;;;;;;;;;;;;;;;5.85;100.00;100004.15;106839;1283;59001;-54
2023/12/20 02:52:19;;;;;;;;;;;;;;;5.85;100.00;100001.41;106875;1283;59779;-55
2023/12/20 02:55:05;;;;;;;;;;;;;;;5.84;100.00;99999.71;106849;1283;73214;-56
2023/12/20 02:57:50;;;;;;;;;;;;;;;5.83;100.00;100001.59;106806;1286;68356;-55
2023/12/20 03:00:36;;;;;;;;;;;;;;;5.83;100.00;100006.21;106752;1285;71383;-53
2023/12/20 03:03:22;;;;;;;;;;;;;;;5.82;100.00;100008.96;106782;1284;58990;-55
2023/12/20 03:06:08;;;;;;;;;;;;;;;5.82;100.00;100008.95;106795;1285;59417;-54
2023/12/20 03:08:54;;;;;;;;;;;;;;;5.82;100.00;100004.52;106807;1284;73279;-53
2023/12/20 03:11:39;;;;;;;;;;;;;;;5.81;100.00;100000.58;106735;1288;67260;-55
2023/12/20 03:14:25;;;;;;;;;;;;;;;5.82;100.00;100001.77;106783;1285;71405;-55
2023/12/20 03:17:11;;;;;;;;;;;;;;;5.81;100.00;99999.90;106766;1285;59165;-55
2023/12/20 03:19:57;;;;;;;;;;;;;;;5.82;100.00;99997.16;106803;1285;59899;-52
2023/12/20 03:22:43;;;;;;;;;;;;;;;5.80;100.00;99997.52;106753;1286;73371;-55
2023/12/20 03:25:28;;;;;;;;;;;;;;;5.78;100.00;99994.27;106761;1285;67471;-55
2023/12/20 03:28:15;;;;;;;;;;;;;;;5.77;100.00;99997.54;106744;1287;71926;-55
2023/12/20 03:31:02;;;;;;;;;;;;;;;5.76;100.00;99996.17;106769;1285;58946;-53
2023/12/20 03:33:48;;;;;;;;;;;;;;;5.77;100.00;99997.54;106751;1284;60459;-56
2023/12/20 03:36:34;;;;;;;;;;;;;;;5.76;100.00;100001.30;106812;1283;73307;-55
2023/12/20 03:39:20;;;;;;;;;;;;;;;5.75;100.00;99999.25;106747;1286;68028;-54
2023/12/20 03:42:06;;;;;;;;;;;;;;;5.75;100.00;100006.09;106780;1285;71393;-55
2023/12/20 03:44:51;;;;;;;;;;;;;;;5.74;100.00;100006.95;106820;1285;59523;-54
2023/12/20 03:47:37;;;;;;;;;;;;;;;5.73;100.00;100005.44;106755;1285;58807;-56
2023/12/20 03:50:23;;;;;;;;;;;;;;;5.72;100.00;100006.30;106808;1285;75106;-55
2023/12/20 03:53:10;;;;;;;;;;;;;;;5.71;100.00;100001.70;106346;1285;67397;-53
2023/12/20 03:55:56;;;;;;;;;;;;;;;5.70;100.00;99999.31;105416;1285;71991;-55
2023/12/20 03:58:42;;;;;;;;;;;;;;;5.69;100.00;100000.17;105468;1283;61267;-55
2023/12/20 04:01:28;;;;;;;;;;;;;;;5.68;100.00;99995.23;105490;1288;61179;-55
2023/12/20 04:04:14;;;;;;;;;;;;;;;5.65;100.00;99985.83;105491;1283;73247;-54
2023/12/20 04:07:00;;;;;;;;;;;;;;;5.63;100.00;99985.16;105539;1283;67227;-54
2023/12/20 04:09:48;;;;;;;;;;;;;;;5.63;100.00;99984.31;105464;1283;74377;-53
2023/12/20 04:12:34;;;;;;;;;;;;;;;5.61;100.00;99982.45;105495;1283;61182;-54
2023/12/20 04:15:20;;;;;;;;;;;;;;;5.60;100.00;99983.99;105496;1283;61511;-55
2023/12/20 04:18:06;;;;;;;;;;;;;;;5.59;100.00;99987.07;105517;1283;75259;-54
2023/12/20 04:20:52;;;;;;;;;;;;;;;5.57;100.00;99982.47;105474;1283;70001;-52
2023/12/20 04:23:38;;;;;;;;;;;;;;;5.58;100.00;99981.95;105487;1288;77473;-54
2023/12/20 04:26:24;;;;;;;;;;;;;;;5.58;100.00;99981.95;105520;1283;61291;-51
2023/12/20 04:29:10;;;;;;;;;;;;;;;5.57;100.00;99980.07;105552;1283;61157;-55
2023/12/20 04:31:57;;;;;;;;;;;;;;;5.57;100.00;99979.05;105541;1288;72626;-54
2023/12/20 04:34:43;;;;;;;;;;;;;;;5.57;100.00;99977.68;105487;1285;67289;-53
2023/12/20 04:37:29;;;;;;;;;;;;;;;5.56;100.00;99974.77;105435;1283;71238;-54
2023/12/20 04:40:15;;;;;;;;;;;;;;;5.56;100.00;99977.17;105446;1286;61156;-54
2023/12/20 04:43:01;;;;;;;;;;;;;;;5.56;100.00;99978.54;105447;1283;62063;-54
2023/12/20 04:45:47;;;;;;;;;;;;;;;5.55;100.00;99976.15;105504;1285;76069;-54
2023/12/20 04:48:33;;;;;;;;;;;;;;;5.56;100.00;99974.44;105463;1283;67411;-54
2023/12/20 04:51:20;;;;;;;;;;;;;;;5.56;100.00;99972.56;105497;1288;71449;-54
2023/12/20 04:54:06;;;;;;;;;;;;;;;5.56;100.00;99975.97;105452;1283;61260;-53
2023/12/20 04:56:52;;;;;;;;;;;;;;;5.56;100.00;99973.76;105462;1283;61134;-53
2023/12/20 04:59:38;;;;;;;;;;;;;;;5.55;100.00;99975.98;105488;1284;74086;-55
2023/12/20 05:02:24;;;;;;;;;;;;;;;5.55;100.00;99975.11;105487;1283;67200;-53
2023/12/20 05:05:10;;;;;;;;;;;;;;;5.56;100.00;99970.16;105487;1283;74000;-54
2023/12/20 05:07:57;;;;;;;;;;;;;;;5.55;100.00;99967.95;105495;1283;61369;-54
2023/12/20 05:10:43;;;;;;;;;;;;;;;5.55;100.00;99972.91;105553;1288;61180;-53
2023/12/20 05:13:29;;;;;;;;;;;;;;;5.54;100.00;99979.41;105496;1284;73266;-55
2023/12/20 05:16:17;;;;;;;;;;;;;;;5.54;100.00;99985.56;105556;1283;67276;-54
2023/12/20 05:19:06;;;;;;;;;;;;;;;5.54;100.00;99989.31;105507;1283;71353;-54
2023/12/20 05:21:52;;;;;;;;;;;;;;;5.53;100.00;99984.54;105650;1283;170433;-54
2023/12/20 05:24:38;;;;;;;;;;;;;;;5.52;100.00;99982.48;106861;1283;59270;-56
2023/12/20 05:27:24;;;;;;;;;;;;;;;5.51;100.00;99982.84;106807;1283;73346;-55
2023/12/20 05:30:10;;;;;;;;;;;;;;;5.49;100.00;99984.05;106874;1283;68125;-54
2023/12/20 05:32:56;;;;;;;;;;;;;;;5.46;100.00;99987.48;106826;1283;71340;-55
2023/12/20 05:35:41;;;;;;;;;;;;;;;5.45;100.00;99982.70;106872;1283;59215;-55
2023/12/20 05:38:27;;;;;;;;;;;;;;;5.44;100.00;99980.65;106896;1283;59027;-55
2023/12/20 05:41:13;;;;;;;;;;;;;;;5.44;100.00;99983.91;106883;1283;72998;-55
2023/12/20 05:43:59;;;;;;;;;;;;;;;5.42;100.00;99982.89;106859;1282;67437;-55
2023/12/20 05:46:45;;;;;;;;;;;;;;;5.40;100.00;99973.16;106811;1283;71402;-54
2023/12/20 05:49:51;;;;;;;;;;;;;;;5.38;100.00;99968.89;92077;1288;20058031;-55
2023/12/20 05:52:36;;;;;;;;;;;;;;;5.34;100.00;99981.39;106800;1284;59279;-55
2023/12/20 05:55:22;;;;;;;;;;;;;;;5.30;100.00;99979.02;106882;1283;59813;-56
2023/12/20 05:58:08;;;;;;;;;;;;;;;5.28;100.00;99975.95;106867;1283;73381;-55
2023/12/20 06:00:54;;;;;;;;;;;;;;;5.27;100.00;99976.30;106820;1283;67277;-55
2023/12/20 06:03:43;;;;;;;;;;;;;;;5.26;100.00;99976.64;106808;1282;72384;-55
2023/12/20 06:06:30;;;;;;;;;;;;;;;5.26;100.00;99973.73;106877;1283;58968;-55
2023/12/20 06:09:16;;;;;;;;;;;;;;;5.27;100.00;99977.15;106843;1283;59697;-55
2023/12/20 06:12:02;;;;;;;;;;;;;;;5.26;100.00;99976.64;106714;1283;246024;-54
2023/12/20 06:14:47;;;;;;;;;;;;;;;5.25;100.00;99974.43;106801;1283;67343;-56
2023/12/20 06:17:34;;;;;;;;;;;;;;;5.26;100.00;99977.84;106829;1283;72301;-54
2023/12/20 06:20:21;;;;;;;;;;;;;;;5.24;100.00;99981.09;106693;1283;59049;-55
2023/12/20 06:23:06;;;;;;;;;;;;;;;5.25;100.00;99973.05;106805;1283;60323;-55
2023/12/20 06:25:52;;;;;;;;;;;;;;;5.24;100.00;99970.84;106777;1284;73721;-56
2023/12/20 06:28:38;;;;;;;;;;;;;;;5.20;100.00;99969.50;106860;1283;69245;-55
2023/12/20 06:31:24;;;;;;;;;;;;;;;5.14;100.00;99969.72;106770;1283;71263;-55
2023/12/20 06:34:10;;;;;;;;;;;;;;;5.08;100.00;99977.09;106843;1282;58861;-55
2023/12/20 06:36:56;;;;;;;;;;;;;;;5.04;100.00;99979.84;106919;1283;60073;-55
2023/12/20 06:39:42;;;;;;;;;;;;;;;4.98;100.00;99987.71;106825;1283;73269;-55
2023/12/20 06:42:27;;;;;;;;;;;;;;;4.93;100.00;99986.02;106885;1283;68622;-55
2023/12/20 06:45:13;;;;;;;;;;;;;;;4.89;100.00;99985.02;106808;1283;71557;-55
2023/12/20 06:47:59;;;;;;;;;;;;;;;4.87;100.00;99990.99;106835;1283;59162;-56
2023/12/20 06:50:45;;;;;;;;;;;;;;;4.82;100.00;99995.79;106882;1283;58930;-55
2023/12/20 06:53:31;;;;;;;;;;;;;;;4.79;100.00;99999.89;105695;1283;73169;-55
2023/12/20 06:56:17;;;;;;;;;;;;;;;4.74;100.00;99999.05;105516;1285;67426;-55
2023/12/20 06:59:03;;;;;;;;;;;;;;;4.73;100.00;100008.78;105516;1283;72166;-55
2023/12/20 07:01:49;;;;;;;;;;;;;;;4.71;100.00;100022.11;105514;1283;61167;-55
2023/12/20 07:04:39;;;;;;;;;;;;;;;4.72;100.00;100020.91;105580;1284;61801;-54
2023/12/20 07:07:26;;;;;;;;;;;;;;;4.72;100.00;100014.08;105634;1283;308021;-54
2023/12/20 07:10:12;;;;;;;;;;;;;;;4.72;100.00;100013.56;106169;1283;67272;-54
2023/12/20 07:12:58;;;;;;;;;;;;;;;4.73;100.00;100020.05;105526;1286;71248;-55
2023/12/20 07:15:44;;;;;;;;;;;;;;;4.75;100.00;100028.25;105563;1283;61812;-54
2023/12/20 07:18:30;;;;;;;;;;;;;;;4.81;100.00;100024.14;105648;1283;59150;-55
2023/12/20 07:21:16;;;;;;;;;;;;;;;4.79;100.00;100016.98;105617;1283;77395;-53
2023/12/20 07:24:02;;;;;;;;;;;;;;;4.80;100.00;100015.61;105577;1283;68294;-53
2023/12/20 07:26:49;;;;;;;;;;;;;;;4.80;100.00;100019.02;105521;1286;73058;-54
2023/12/20 07:29:35;;;;;;;;;;;;;;;4.80;100.00;100016.11;105313;1283;61091;-55
2023/12/20 07:32:21;;;;;;;;;;;;;;;4.81;100.00;100015.95;105370;1284;59182;-54
2023/12/20 07:35:08;;;;;;;;;;;;;;;4.81;100.00;100016.96;105400;1284;74714;-54
2023/12/20 07:37:54;;;;;;;;;;;;;;;4.82;100.00;100024.14;106820;1283;66268;-55
2023/12/20 07:40:39;;;;;;;;;;;;;;;4.83;100.00;100024.48;106755;1283;71443;-55
2023/12/20 07:43:25;;;;;;;;;;;;;;;4.83;100.00;100022.60;106802;1283;59024;-53
2023/12/20 07:46:11;;;;;;;;;;;;;;;4.83;100.00;100028.05;106789;1285;59773;-56
2023/12/20 07:48:57;;;;;;;;;;;;;;;4.84;100.00;100021.91;106104;1283;74617;-54
2023/12/20 07:51:43;;;;;;;;;;;;;;;4.85;100.00;100016.79;105441;1283;67572;-54
2023/12/20 07:54:29;;;;;;;;;;;;;;;4.85;100.00;100021.91;105514;1284;75375;-53
2023/12/20 07:57:15;;;;;;;;;;;;;;;4.84;100.00;100019.69;105484;1283;61259;-54
2023/12/20 08:00:03;;;;;;;;;;;;;;;4.84;100.00;100014.23;105477;1283;61143;-51
2023/12/20 08:02:49;;;;;;;;;;;;;;;4.83;100.00;100018.50;105478;1283;73509;-55
2023/12/20 08:05:36;;;;;;;;;;;;;;;4.85;100.00;100017.80;105532;1283;67189;-54
2023/12/20 08:08:22;;;;;;;;;;;;;;;4.88;100.00;100015.08;105486;1288;71599;-54
2023/12/20 08:11:08;;;;;;;;;;;;;;;4.90;100.00;100016.27;105426;1288;61263;-52
2023/12/20 08:13:54;;;;;;;;;;;;;;;4.91;100.00;100013.01;105526;1283;61442;-54
2023/12/20 08:16:40;;;;;;;;;;;;;;;4.93;100.00;100017.79;105417;1285;73136;-50
2023/12/20 08:19:26;;;;;;;;;;;;;;;4.93;100.00;100013.17;105443;1283;69957;-52
2023/12/20 08:22:13;;;;;;;;;;;;;;;4.91;100.00;100002.94;105380;1283;73977;-52
2023/12/20 08:24:59;;;;;;;;;;;;;;;4.88;100.00;100002.95;105430;1286;61204;-55
2023/12/20 08:27:45;;;;;;;;;;;;;;;4.87;100.00;100009.09;105470;1283;61169;-53
2023/12/20 08:30:32;;;;;;;;;;;;;;;4.86;100.00;100012.17;105403;1283;73298;-53
2023/12/20 08:33:18;;;;;;;;;;;;;;;4.87;100.00;100012.34;105484;1285;67119;-55
2023/12/20 08:36:05;;;;;;;;;;;;;;;4.89;100.00;100010.80;105435;1283;71338;-54
2023/12/20 08:38:51;;;;;;;;;;;;;;;4.93;100.00;100012.49;106765;1283;59027;-54
2023/12/20 08:41:37;;;;;;;;;;;;;;;4.93;100.00;100010.45;106713;1283;58991;-53
2023/12/20 08:44:23;;;;;;;;;;;;;;;4.91;100.00;100008.58;105563;1283;73761;-54
2023/12/20 08:47:13;;;;;;;;;;;;;;;4.88;100.00;100008.58;105518;1283;67132;-54
2023/12/20 08:49:59;;;;;;;;;;;;;;;5.07;100.00;100004.09;105447;1283;71378;-55
2023/12/20 08:52:46;;;;;;;;;;;;;;;5.24;100.00;99998.17;105447;1283;61278;-55
2023/12/20 08:55:32;;;;;;;;;;;;;;;5.39;100.00;99996.40;105483;1283;61186;-54
2023/12/20 08:58:18;;;;;;;;;;;;;;;5.45;100.00;99997.41;105463;1286;73278;-55
2023/12/20 09:01:04;;;;;;;;;;;;;;;5.54;100.00;99998.20;105527;1282;67259;-55
2023/12/20 09:03:50;;;;;;;;;;;;;;;5.74;99.55;99988.50;105398;1283;73928;-55
2023/12/20 09:06:36;;;;;;;;;;;;;;;5.97;98.84;99985.11;105366;1283;61933;-55
2023/12/20 09:09:22;;;;;;;;;;;;;;;6.06;97.25;99982.48;105478;1283;61109;-55
2023/12/20 09:12:08;;;;;;;;;;;;;;;5.91;97.57;99980.20;105386;1283;73178;-54
2023/12/20 09:14:55;;;;;;;;;;;;;;;5.89;98.75;99981.91;105394;1283;67134;-54
2023/12/20 09:17:41;;;;;;;;;;;;;;;5.88;98.66;99976.94;105364;1283;74853;-55
2023/12/20 09:20:28;;;;;;;;;;;;;;;5.88;98.23;99972.15;106795;1283;59244;-53
2023/12/20 09:23:13;;;;;;;;;;;;;;;5.80;98.53;99971.34;106675;1283;59667;-54
2023/12/20 09:25:59;;;;;;;;;;;;;;;5.68;97.39;99970.93;106803;1283;73153;-55
2023/12/20 09:28:45;;;;;;;;;;;;;;;5.75;98.24;99971.55;106747;1288;67681;-55
2023/12/20 09:31:31;;;;;;;;;;;;;;;5.85;97.54;99974.90;106601;1284;71361;-54
2023/12/20 09:34:17;;;;;;;;;;;;;;;5.85;96.34;99978.84;105469;1283;61124;-52
2023/12/20 09:37:03;;;;;;;;;;;;;;;5.93;98.20;99970.43;105432;1286;61171;-54
2023/12/20 09:39:49;;;;;;;;;;;;;;;5.95;98.55;99970.25;105809;1283;73180;-54
2023/12/20 09:42:35;;;;;;;;;;;;;;;5.95;99.15;99964.95;105430;1283;67123;-53
2023/12/20 09:45:22;;;;;;;;;;;;;;;5.95;98.71;99962.20;105474;1283;71293;-55
2023/12/20 09:48:10;;;;;;;;;;;;;;;5.91;98.09;99960.52;105583;1283;61274;-55
2023/12/20 09:50:56;;;;;;;;;;;;;;;5.91;98.30;99956.08;105326;1283;61297;-54
2023/12/20 09:53:43;;;;;;;;;;;;;;;5.88;97.38;99947.19;105494;1283;73383;-53
2023/12/20 09:56:29;;;;;;;;;;;;;;;5.87;97.17;99943.92;105512;1283;69932;-54
2023/12/20 09:59:15;;;;;;;;;;;;;;;5.85;97.28;99943.43;105347;1285;74503;-54
2023/12/20 10:02:04;;;;;;;;;;;;;;;5.82;97.21;99937.13;105367;1286;61259;-54
2023/12/20 10:04:50;;;;;;;;;;;;;;;5.77;97.53;99925.36;105859;1285;59256;-54
2023/12/20 10:07:36;;;;;;;;;;;;;;;5.77;98.37;99921.42;105355;1286;77307;-55
2023/12/20 10:10:23;;;;;;;;;;;;;;;5.75;96.75;99917.85;105179;1285;69149;-53
2023/12/20 10:13:10;;;;;;;;;;;;;;;5.72;96.60;99912.42;105311;1286;71215;-53
2023/12/20 10:15:57;;;;;;;;;;;;;;;5.70;96.62;99916.20;105405;1283;61172;-54
2023/12/20 10:18:44;;;;;;;;;;;;;;;5.64;96.56;99913.19;105334;1286;61172;-54
2023/12/20 10:21:31;;;;;;;;;;;;;;;5.61;97.02;99913.04;105323;1284;75444;-55
2023/12/20 10:24:17;;;;;;;;;;;;;;;5.58;96.48;99912.36;105281;1283;67838;-51
2023/12/20 10:27:04;;;;;;;;;;;;;;;5.53;95.34;99910.35;105374;1284;73142;-54
2023/12/20 10:29:51;;;;;;;;;;;;;;;5.50;94.17;99907.80;105386;1286;61196;-54
2023/12/20 10:32:37;;;;;;;;;;;;;;;5.52;95.26;99910.86;105301;1285;59666;-53
2023/12/20 10:35:23;;;;;;;;;;;;;;;5.50;93.99;99907.29;105345;1285;73754;-52
2023/12/20 10:38:10;;;;;;;;;;;;;;;5.48;94.79;99905.25;105283;1285;67219;-53
2023/12/20 10:41:00;;;;;;;;;;;;;;;5.49;95.89;99895.16;106733;1285;71341;-52
2023/12/20 10:43:46;;;;;;;;;;;;;;;5.48;95.54;99891.23;106760;1285;59127;-55
2023/12/20 10:46:33;;;;;;;;;;;;;;;5.44;95.53;99889.73;106786;1285;58858;-55
2023/12/20 10:49:19;;;;;;;;;;;;;;;5.40;94.49;99888.04;106735;1285;73709;-52
2023/12/20 10:52:06;;;;;;;;;;;;;;;5.41;95.68;99880.86;106723;1284;68642;-55
2023/12/20 10:54:51;;;;;;;;;;;;;;;5.36;95.78;99875.76;106627;1287;73098;-54
2023/12/20 10:57:38;;;;;;;;;;;;;;;5.33;96.10;99869.29;106807;1287;59204;-54
2023/12/20 11:00:24;;;;;;;;;;;;;;;5.26;95.82;99871.89;106857;1284;58846;-54
2023/12/20 11:03:11;;;;;;;;;;;;;;;5.23;95.75;99857.05;106820;1283;74618;-54
2023/12/20 11:06:03;;;;;;;;;;;;;;;5.23;95.89;99851.58;106846;1283;69096;-51
2023/12/20 11:08:49;;;;;;;;;;;;;;;5.26;96.49;99846.44;106820;1283;72353;-54
2023/12/20 11:11:39;;;;;;;;;;;;;;;5.30;96.70;99843.67;106784;1283;59492;-53
2023/12/20 11:14:33;;;;;;;;;;;;;;;5.35;97.01;99837.48;106833;1285;58829;-54
2023/12/20 11:17:19;;;;;;;;;;;;;;;5.30;96.75;99840.42;106806;1286;73361;-54
2023/12/20 11:20:06;;;;;;;;;;;;;;;5.28;97.16;99830.88;106877;1285;67254;-53
2023/12/20 11:22:53;;;;;;;;;;;;;;;5.25;97.09;99829.36;106801;1285;71332;-53
2023/12/20 11:25:49;;;;;;;;;;;;;;;5.19;96.77;99824.98;106768;1283;59388;-54
2023/12/20 11:28:35;;;;;;;;;;;;;;;5.11;97.17;99819.06;106857;1283;59627;-54
2023/12/20 11:31:20;;;;;;;;;;;;;;;5.07;97.19;99812.59;106845;1283;73376;-53
2023/12/20 11:34:13;;;;;;;;;;;;;;;5.08;97.68;99808.84;106804;1283;66379;-54
2023/12/20 11:36:59;;;;;;;;;;;;;;;5.10;98.09;99804.89;106818;1283;71389;-53
2023/12/20 11:39:45;;;;;;;;;;;;;;;5.10;98.15;99803.86;106815;1285;59092;-54
2023/12/20 11:42:45;;;;;;;;;;;;;;;5.10;98.30;99795.84;106825;1284;58980;-51
2023/12/20 11:45:31;;;;;;;;;;;;;;;5.05;98.15;99791.25;106826;1283;74080;-54
2023/12/20 11:48:18;;;;;;;;;;;;;;;5.04;98.35;99782.55;106077;1283;68197;-52
2023/12/20 11:51:11;;;;;;;;;;;;;;;4.99;99.00;99785.83;105421;1283;71246;-52
2023/12/20 11:53:57;;;;;;;;;;;;;;;5.00;98.98;99783.42;105479;1283;61221;-50
2023/12/20 11:56:43;;;;;;;;;;;;;;;5.02;98.81;99780.35;105492;1288;61160;-53
2023/12/20 11:59:31;;;;;;;;;;;;;;;5.00;99.07;99780.86;105282;1286;75957;-52
2023/12/20 12:02:17;;;;;;;;;;;;;;;4.97;99.42;99776.63;105414;1286;67478;-54
2023/12/20 12:05:06;;;;;;;;;;;;;;;4.98;99.40;99768.42;105374;1286;73068;-52
2023/12/20 12:07:53;;;;;;;;;;;;;;;5.01;99.25;99760.38;106727;1284;60621;-51
2023/12/20 12:10:39;;;;;;;;;;;;;;;5.01;99.24;99752.52;106725;1285;60002;-52
2023/12/20 12:13:27;;;;;;;;;;;;;;;5.03;99.31;99744.98;106745;1284;74586;-54
2023/12/20 12:16:16;;;;;;;;;;;;;;;5.04;99.25;99744.81;106808;1285;67290;-54
2023/12/20 12:19:02;;;;;;;;;;;;;;;5.04;99.14;99741.23;106687;1286;71356;-54
2023/12/20 12:21:48;;;;;;;;;;;;;;;5.04;98.77;99747.19;106658;1285;58738;-55
2023/12/20 12:24:34;;;;;;;;;;;;;;;5.02;98.46;99738.67;106713;1285;59773;-52
2023/12/20 12:27:20;;;;;;;;;;;;;;;5.05;98.58;99735.41;106665;1285;73657;-54
2023/12/20 12:30:07;;;;;;;;;;;;;;;5.07;98.48;99733.68;105754;1286;67293;-54
2023/12/20 12:32:53;;;;;;;;;;;;;;;5.04;98.52;99730.80;105433;1288;71400;-54
2023/12/20 12:35:40;;;;;;;;;;;;;;;5.03;98.76;99731.65;105360;1285;61176;-53
2023/12/20 12:38:26;;;;;;;;;;;;;;;5.01;98.77;99723.30;105365;1286;61238;-53
2023/12/20 12:41:13;;;;;;;;;;;;;;;4.98;98.42;99722.13;105318;1286;73309;-53
2023/12/20 12:43:58;;;;;;;;;;;;;;;5.01;98.50;99716.81;106746;1285;67509;-54
2023/12/20 12:46:46;;;;;;;;;;;;;;;5.02;98.55;99715.96;105574;1288;72279;-53
2023/12/20 12:49:32;;;;;;;;;;;;;;;5.03;98.49;99709.63;105363;1285;61263;-52
2023/12/20 12:52:18;;;;;;;;;;;;;;;5.03;98.33;99708.27;105236;1284;63660;-53
2023/12/20 12:55:04;;;;;;;;;;;;;;;5.05;98.41;99706.19;105405;1288;73285;-53
2023/12/20 12:57:50;;;;;;;;;;;;;;;5.06;98.40;99706.86;105412;1286;69885;-53
2023/12/20 13:00:36;;;;;;;;;;;;;;;5.08;97.93;99696.43;105340;1286;76804;-53
2023/12/20 13:03:23;;;;;;;;;;;;;;;5.10;97.66;99699.49;105300;1286;61199;-51
2023/12/20 13:06:09;;;;;;;;;;;;;;;5.12;96.76;99692.13;105287;1286;61224;-54
2023/12/20 13:08:55;;;;;;;;;;;;;;;5.17;97.27;99683.20;105338;1285;73240;-54
2023/12/20 13:11:41;;;;;;;;;;;;;;;5.18;96.94;99681.48;105274;1288;70005;-51
2023/12/20 13:14:27;;;;;;;;;;;;;;;5.18;96.50;99678.58;32640;1284;10003783;-54
2023/12/20 13:17:13;;;;;;;;;;;;;;;5.17;96.11;99676.36;106751;1286;59788;-54
2023/12/20 13:19:59;;;;;;;;;;;;;;;5.16;95.79;99679.61;106719;1285;74343;-53
2023/12/20 13:22:45;;;;;;;;;;;;;;;5.14;95.87;99674.52;106694;1285;67872;-55
2023/12/20 13:25:31;;;;;;;;;;;;;;;5.14;95.92;99676.90;106625;1286;72192;-55
2023/12/20 13:28:17;;;;;;;;;;;;;;;5.15;95.85;99662.55;106739;1285;58887;-56
2023/12/20 13:31:03;;;;;;;;;;;;;;;5.17;95.56;99660.48;106569;1284;58824;-56
2023/12/20 13:33:49;;;;;;;;;;;;;;;5.19;95.62;99651.41;106673;1285;73284;-56
2023/12/20 13:36:36;;;;;;;;;;;;;;;5.19;94.76;99653.45;106697;1283;68494;-54
2023/12/20 13:39:22;;;;;;;;;;;;;;;5.21;95.13;99650.16;106642;1285;72318;-54
2023/12/20 13:42:07;;;;;;;;;;;;;;;5.21;95.15;99644.52;106721;1285;59429;-55
2023/12/20 13:44:53;;;;;;;;;;;;;;;5.23;95.27;99644.34;106781;1283;59919;-55
2023/12/20 13:47:39;;;;;;;;;;;;;;;5.23;94.86;99640.75;106804;1283;74494;-54
2023/12/20 13:50:26;;;;;;;;;;;;;;;5.23;94.52;99633.23;106709;1288;67178;-54
2023/12/20 13:53:11;;;;;;;;;;;;;;;5.24;95.39;99629.80;106782;1286;71973;-54
2023/12/20 13:55:57;;;;;;;;;;;;;;;5.22;95.02;99615.46;106726;1286;59724;-54
2023/12/20 13:58:43;;;;;;;;;;;;;;;5.19;93.64;99615.70;106807;1283;59272;-52
2023/12/20 14:01:29;;;;;;;;;;;;;;;5.20;94.42;99616.36;106857;1283;73431;-54
2023/12/20 14:04:15;;;;;;;;;;;;;;;5.22;95.13;99618.21;106854;1283;67871;-54
2023/12/20 14:07:01;;;;;;;;;;;;;;;5.21;93.62;99615.13;106818;1283;71440;-54
2023/12/20 14:09:47;;;;;;;;;;;;;;;5.23;93.77;99605.55;106822;1283;58917;-53
2023/12/20 14:12:36;;;;;;;;;;;;;;;5.23;92.74;99602.48;106791;1283;59687;-54